PWSweather.com
Personal Weather Stations
Station Observations
IMAZOWIE6
WarszawaPL

WarszawaPL

Lat: 52.27957, Lon: 21.05489

Elevation: 100

Station Type: WS1080

http://stacjapogody.waw.pl/

High Low Average
Temperature 1795.3°F979.6°C 67.1°F19.5°C 89.5°F31.9°C
Dew Point 1012.5°F544.7°C -165.9°F-109.9°C -26.7°F-32.6°C
Winds 102.4 mph 164.8 kmh Calm Calm 2.0 mph N3.2 kmh N
Wind Gusts 9.6 mph15.4 kmh -- 2.0 mph3.2 kmh
Humidity 55% 1% 46%
Pressure 29.13 in986.5 mb 12.87 in435.8 mb -
Precipitation 0.00 in0.0 mm - -
Hour Temp Dew Point Humidity Winds Wind Gusts Pressure Precip Precip Rate Daily Precip Total
12:06 AM 67.1°F19.5°C 49.8°F9.9°C 54% Calm Calm 1.4 mph2.3 kmh 29.12 in986.1 mb 0.00 in0.0 mm 0.00 in0.0 mm 0.00 in0.0 mm
12:21 AM 67.3°F19.6°C 50.5°F10.3°C 55% Calm Calm 2.8 mph4.5 kmh 29.13 in986.5 mb 0.00 in0.0 mm 0.00 in0.0 mm 0.00 in0.0 mm
12:36 AM 67.3°F19.6°C 50.0°F10.0°C 54% Calm Calm 0.6 mph1.0 kmh 29.12 in986.1 mb 0.00 in0.0 mm 0.00 in0.0 mm 0.00 in0.0 mm
01:01 AM 67.3°F19.6°C 50.0°F10.0°C 54% Calm Calm 0.6 mph1.0 kmh 29.12 in986.1 mb 0.00 in0.0 mm 0.00 in0.0 mm 0.00 in0.0 mm
01:16 AM 67.3°F19.6°C 50.0°F10.0°C 54% Calm Calm 0.6 mph1.0 kmh 29.12 in986.1 mb 0.00 in0.0 mm 0.00 in0.0 mm 0.00 in0.0 mm
01:31 AM 67.3°F19.6°C 50.0°F10.0°C 54% Calm Calm 0.6 mph1.0 kmh 29.12 in986.1 mb 0.00 in0.0 mm 0.00 in0.0 mm 0.00 in0.0 mm
01:46 AM 67.3°F19.6°C 50.0°F10.0°C 54% Calm Calm 0.6 mph1.0 kmh 29.12 in986.1 mb 0.00 in0.0 mm 0.00 in0.0 mm 0.00 in0.0 mm
02:01 AM 67.3°F19.6°C 50.0°F10.0°C 54% Calm Calm 0.6 mph1.0 kmh 29.12 in986.1 mb 0.00 in0.0 mm 0.00 in0.0 mm 0.00 in0.0 mm
02:16 AM 67.3°F19.6°C 50.0°F10.0°C 54% Calm Calm 0.6 mph1.0 kmh 29.12 in986.1 mb 0.00 in0.0 mm 0.00 in0.0 mm 0.00 in0.0 mm
02:32 AM 67.3°F19.6°C 50.0°F10.0°C 54% Calm Calm 0.6 mph1.0 kmh 29.12 in986.1 mb 0.00 in0.0 mm 0.00 in0.0 mm 0.00 in0.0 mm
02:46 AM 67.3°F19.6°C 50.0°F10.0°C 54% Calm Calm 0.6 mph1.0 kmh 29.12 in986.1 mb 0.00 in0.0 mm 0.00 in0.0 mm 0.00 in0.0 mm
03:01 AM 67.3°F19.6°C 50.0°F10.0°C 54% Calm Calm 0.6 mph1.0 kmh 29.12 in986.1 mb 0.00 in0.0 mm 0.00 in0.0 mm 0.00 in0.0 mm
03:16 AM 67.3°F19.6°C 50.0°F10.0°C 54% Calm Calm 0.6 mph1.0 kmh 29.12 in986.1 mb 0.00 in0.0 mm 0.00 in0.0 mm 0.00 in0.0 mm
03:31 AM 67.3°F19.6°C 50.0°F10.0°C 54% Calm Calm 0.6 mph1.0 kmh 29.12 in986.1 mb 0.00 in0.0 mm 0.00 in0.0 mm 0.00 in0.0 mm
03:46 AM 67.3°F19.6°C 50.0°F10.0°C 54% Calm Calm 0.6 mph1.0 kmh 29.12 in986.1 mb 0.00 in0.0 mm 0.00 in0.0 mm 0.00 in0.0 mm
04:01 AM 67.3°F19.6°C 50.0°F10.0°C 54% Calm Calm 0.6 mph1.0 kmh 29.12 in986.1 mb 0.00 in0.0 mm 0.00 in0.0 mm 0.00 in0.0 mm
04:16 AM 67.3°F19.6°C 50.0°F10.0°C 54% Calm Calm 0.6 mph1.0 kmh 29.12 in986.1 mb 0.00 in0.0 mm 0.00 in0.0 mm 0.00 in0.0 mm
04:31 AM 67.3°F19.6°C 50.0°F10.0°C 54% Calm Calm 0.6 mph1.0 kmh 29.12 in986.1 mb 0.00 in0.0 mm 0.00 in0.0 mm 0.00 in0.0 mm
04:46 AM 67.3°F19.6°C 50.0°F10.0°C 54% Calm Calm 0.6 mph1.0 kmh 29.12 in986.1 mb 0.00 in0.0 mm 0.00 in0.0 mm 0.00 in0.0 mm
05:01 AM 67.3°F19.6°C 50.0°F10.0°C 54% Calm Calm 0.6 mph1.0 kmh 29.12 in986.1 mb 0.00 in0.0 mm 0.00 in0.0 mm 0.00 in0.0 mm
05:16 AM 67.3°F19.6°C 50.0°F10.0°C 54% Calm Calm 0.6 mph1.0 kmh 29.12 in986.1 mb 0.00 in0.0 mm 0.00 in0.0 mm 0.00 in0.0 mm
05:31 AM 67.3°F19.6°C 50.0°F10.0°C 54% Calm Calm 0.6 mph1.0 kmh 29.12 in986.1 mb 0.00 in0.0 mm 0.00 in0.0 mm 0.00 in0.0 mm
05:46 AM 67.3°F19.6°C 50.0°F10.0°C 54% Calm Calm 0.6 mph1.0 kmh 29.12 in986.1 mb 0.00 in0.0 mm 0.00 in0.0 mm 0.00 in0.0 mm
06:01 AM 67.3°F19.6°C 50.0°F10.0°C 54% Calm Calm 0.6 mph1.0 kmh 29.12 in986.1 mb 0.00 in0.0 mm 0.00 in0.0 mm 0.00 in0.0 mm
06:16 AM 67.3°F19.6°C 50.0°F10.0°C 54% Calm Calm 0.6 mph1.0 kmh 29.12 in986.1 mb 0.00 in0.0 mm 0.00 in0.0 mm 0.00 in0.0 mm
06:31 AM 67.3°F19.6°C 50.0°F10.0°C 54% Calm Calm 0.6 mph1.0 kmh 29.12 in986.1 mb 0.00 in0.0 mm 0.00 in0.0 mm 0.00 in0.0 mm
06:46 AM 67.3°F19.6°C 50.0°F10.0°C 54% Calm Calm 0.6 mph1.0 kmh 29.12 in986.1 mb 0.00 in0.0 mm 0.00 in0.0 mm 0.00 in0.0 mm
07:01 AM 67.3°F19.6°C 50.0°F10.0°C 54% Calm Calm 0.6 mph1.0 kmh 29.12 in986.1 mb 0.00 in0.0 mm 0.00 in0.0 mm 0.00 in0.0 mm
07:16 AM 67.3°F19.6°C 50.0°F10.0°C 54% Calm Calm 0.6 mph1.0 kmh 29.12 in986.1 mb 0.00 in0.0 mm 0.00 in0.0 mm 0.00 in0.0 mm
07:31 AM 67.3°F19.6°C 50.0°F10.0°C 54% Calm Calm 0.6 mph1.0 kmh 29.12 in986.1 mb 0.00 in0.0 mm 0.00 in0.0 mm 0.00 in0.0 mm
07:46 AM 67.3°F19.6°C 50.0°F10.0°C 54% Calm Calm 0.6 mph1.0 kmh 29.12 in986.1 mb 0.00 in0.0 mm 0.00 in0.0 mm 0.00 in0.0 mm
08:01 AM 67.3°F19.6°C 50.0°F10.0°C 54% Calm Calm 0.6 mph1.0 kmh 29.12 in986.1 mb 0.00 in0.0 mm 0.00 in0.0 mm 0.00 in0.0 mm
08:16 AM 67.3°F19.6°C 50.0°F10.0°C 54% Calm Calm 0.6 mph1.0 kmh 29.12 in986.1 mb 0.00 in0.0 mm 0.00 in0.0 mm 0.00 in0.0 mm
08:31 AM 67.3°F19.6°C 50.0°F10.0°C 54% Calm Calm 0.6 mph1.0 kmh 29.12 in986.1 mb 0.00 in0.0 mm 0.00 in0.0 mm 0.00 in0.0 mm
08:46 AM 67.3°F19.6°C 50.0°F10.0°C 54% Calm Calm 0.6 mph1.0 kmh 29.12 in986.1 mb 0.00 in0.0 mm 0.00 in0.0 mm 0.00 in0.0 mm
09:01 AM 67.3°F19.6°C 50.0°F10.0°C 54% Calm Calm 0.6 mph1.0 kmh 29.12 in986.1 mb 0.00 in0.0 mm 0.00 in0.0 mm 0.00 in0.0 mm
09:16 AM 67.3°F19.6°C 50.0°F10.0°C 54% Calm Calm 0.6 mph1.0 kmh 29.12 in986.1 mb 0.00 in0.0 mm 0.00 in0.0 mm 0.00 in0.0 mm
09:31 AM 67.3°F19.6°C 50.0°F10.0°C 54% Calm Calm 0.6 mph1.0 kmh 29.12 in986.1 mb 0.00 in0.0 mm 0.00 in0.0 mm 0.00 in0.0 mm
09:46 AM 67.3°F19.6°C 50.0°F10.0°C 54% Calm Calm 0.6 mph1.0 kmh 29.12 in986.1 mb 0.00 in0.0 mm 0.00 in0.0 mm 0.00 in0.0 mm
10:01 AM 67.3°F19.6°C 50.0°F10.0°C 54% Calm Calm 0.6 mph1.0 kmh 29.12 in986.1 mb 0.00 in0.0 mm 0.00 in0.0 mm 0.00 in0.0 mm
10:16 AM 67.3°F19.6°C 50.0°F10.0°C 54% Calm Calm 0.6 mph1.0 kmh 29.12 in986.1 mb 0.00 in0.0 mm 0.00 in0.0 mm 0.00 in0.0 mm
10:31 AM 67.3°F19.6°C 50.0°F10.0°C 54% Calm Calm 0.6 mph1.0 kmh 29.12 in986.1 mb 0.00 in0.0 mm 0.00 in0.0 mm 0.00 in0.0 mm
10:46 AM 67.3°F19.6°C 50.0°F10.0°C 54% Calm Calm 0.6 mph1.0 kmh 29.12 in986.1 mb 0.00 in0.0 mm 0.00 in0.0 mm 0.00 in0.0 mm
11:01 AM 67.3°F19.6°C 50.0°F10.0°C 54% Calm Calm 0.6 mph1.0 kmh 29.12 in986.1 mb 0.00 in0.0 mm 0.00 in0.0 mm 0.00 in0.0 mm
11:16 AM 67.3°F19.6°C 50.0°F10.0°C 54% Calm Calm 0.6 mph1.0 kmh 29.12 in986.1 mb 0.00 in0.0 mm 0.00 in0.0 mm 0.00 in0.0 mm
11:31 AM 67.3°F19.6°C 50.0°F10.0°C 54% Calm Calm 0.6 mph1.0 kmh 29.12 in986.1 mb 0.00 in0.0 mm 0.00 in0.0 mm 0.00 in0.0 mm
12:21 PM 69.6°F20.9°C 10.7°F-11.8°C 10% Calm Calm 0.6 mph1.0 kmh 28.99 in981.7 mb 0.05 in1.3 mm 0.30 in7.6 mm 0.05 in1.3 mm
12:36 PM 69.4°F20.8°C 16.5°F-8.6°C 13% Calm Calm 1.4 mph2.3 kmh 28.99 in981.7 mb 0.05 in1.3 mm 0.00 in0.0 mm 0.05 in1.3 mm
12:51 PM 70.2°F21.2°C 18.7°F-7.4°C 14% Calm Calm -- 28.96 in980.7 mb 0.05 in1.3 mm 0.00 in0.0 mm 0.05 in1.3 mm
01:06 PM 71.4°F21.9°C 19.8°F-6.8°C 14% Calm Calm 0.6 mph1.0 kmh 28.95 in980.4 mb 0.05 in1.3 mm 0.00 in0.0 mm 0.05 in1.3 mm
01:21 PM 72.9°F22.7°C 19.2°F-7.1°C 13% 1.4 mph N2.3 kmh N 4.8 mph7.7 kmh 28.95 in980.4 mb 0.00 in0.0 mm 0.00 in0.0 mm 0.05 in1.3 mm
01:36 PM 73.4°F23.0°C 13.7°F-10.2°C 10% 0.6 mph N1.0 kmh N 2.8 mph4.5 kmh 28.94 in980.0 mb 0.00 in0.0 mm 0.00 in0.0 mm 0.05 in1.3 mm
01:51 PM 74.3°F23.5°C -165.4°F-109.7°C - 1.4 mph N2.3 kmh N 2.8 mph4.5 kmh 28.94 in980.0 mb 0.00 in0.0 mm 0.00 in0.0 mm 0.05 in1.3 mm
02:06 PM 76.1°F24.5°C -165.2°F-109.6°C - 1.4 mph N2.3 kmh N 3.4 mph5.5 kmh 28.93 in979.7 mb 0.00 in0.0 mm 0.00 in0.0 mm 0.05 in1.3 mm
02:21 PM 78.3°F25.7°C -165.0°F-109.4°C - 1.4 mph N2.3 kmh N 6.2 mph10.0 kmh 28.92 in979.3 mb 0.00 in0.0 mm 0.00 in0.0 mm 0.05 in1.3 mm
02:36 PM 79.7°F26.5°C -164.8°F-109.3°C - 1.4 mph N2.3 kmh N 4.8 mph7.7 kmh 28.92 in979.3 mb 0.00 in0.0 mm 0.00 in0.0 mm 0.05 in1.3 mm
02:51 PM 81.0°F27.2°C -164.7°F-109.3°C - 0.6 mph N1.0 kmh N 3.4 mph5.5 kmh 28.93 in979.7 mb 0.00 in0.0 mm 0.00 in0.0 mm 0.05 in1.3 mm
03:06 PM 81.3°F27.4°C -164.7°F-109.3°C - 1.4 mph N2.3 kmh N 5.4 mph8.7 kmh 28.92 in979.3 mb 0.00 in0.0 mm 0.00 in0.0 mm 0.05 in1.3 mm
03:21 PM 82.0°F27.8°C -164.6°F-109.2°C - 2.8 mph N4.5 kmh N 5.4 mph8.7 kmh 28.93 in979.7 mb 0.00 in0.0 mm 0.00 in0.0 mm 0.05 in1.3 mm
03:36 PM 82.6°F28.1°C -164.5°F-109.2°C - 2.8 mph N4.5 kmh N 5.4 mph8.7 kmh 28.94 in980.0 mb 0.00 in0.0 mm 0.00 in0.0 mm 0.05 in1.3 mm
03:46 PM 1795.3°F979.6°C 1012.5°F544.7°C 1% 102.4 mph N164.8 kmh N 1.2 mph1.9 kmh 12.87 in435.8 mb 0.00 in0.0 mm 0.00 in0.0 mm 0.05 in1.3 mm
04:06 PM 83.5°F28.6°C -164.5°F-109.2°C - 2.0 mph N3.2 kmh N 4.0 mph6.4 kmh 28.93 in979.7 mb 0.00 in0.0 mm 0.00 in0.0 mm 0.05 in1.3 mm
04:21 PM 83.7°F28.7°C -164.4°F-109.1°C - 2.0 mph N3.2 kmh N 3.4 mph5.5 kmh 28.93 in979.7 mb 0.00 in0.0 mm 0.00 in0.0 mm 0.05 in1.3 mm
04:36 PM 83.3°F28.5°C -164.5°F-109.2°C - Calm Calm 0.6 mph1.0 kmh 28.94 in980.0 mb 0.00 in0.0 mm 0.00 in0.0 mm 0.05 in1.3 mm
04:51 PM 82.2°F27.9°C -164.6°F-109.2°C - 1.4 mph N2.3 kmh N 4.0 mph6.4 kmh 28.94 in980.0 mb 0.00 in0.0 mm 0.00 in0.0 mm 0.05 in1.3 mm
05:06 PM 82.2°F27.9°C -164.6°F-109.2°C - 0.6 mph N1.0 kmh N 2.8 mph4.5 kmh 28.94 in980.0 mb 0.00 in0.0 mm 0.00 in0.0 mm 0.05 in1.3 mm
05:21 PM 82.2°F27.9°C -164.6°F-109.2°C - 1.4 mph N2.3 kmh N 3.4 mph5.5 kmh 28.93 in979.7 mb 0.00 in0.0 mm 0.00 in0.0 mm 0.05 in1.3 mm
05:36 PM 81.9°F27.7°C -164.6°F-109.2°C - 2.0 mph N3.2 kmh N 4.0 mph6.4 kmh 28.94 in980.0 mb 0.00 in0.0 mm 0.00 in0.0 mm 0.05 in1.3 mm
05:51 PM 82.0°F27.8°C -164.6°F-109.2°C - 4.8 mph N7.7 kmh N 8.8 mph14.2 kmh 28.95 in980.4 mb 0.00 in0.0 mm 0.00 in0.0 mm 0.05 in1.3 mm
06:06 PM 78.1°F25.6°C -165.0°F-109.4°C - 5.4 mph N8.7 kmh N 9.6 mph15.4 kmh 28.96 in980.7 mb 0.00 in0.0 mm 0.00 in0.0 mm 0.05 in1.3 mm
06:21 PM 72.3°F22.4°C -165.6°F-109.8°C - Calm Calm 0.6 mph1.0 kmh 28.95 in980.4 mb 0.02 in0.5 mm 0.10 in2.5 mm 0.07 in1.8 mm
06:36 PM 71.4°F21.9°C -165.7°F-109.8°C - 0.6 mph N1.0 kmh N 2.8 mph4.5 kmh 28.95 in980.4 mb 0.02 in0.5 mm 0.00 in0.0 mm 0.07 in1.8 mm
06:51 PM 71.4°F21.9°C -165.7°F-109.8°C - Calm Calm 2.0 mph3.2 kmh 28.95 in980.4 mb 0.02 in0.5 mm 0.00 in0.0 mm 0.07 in1.8 mm
07:06 PM 71.6°F22.0°C -165.6°F-109.8°C - Calm Calm 1.4 mph2.3 kmh 28.95 in980.4 mb 0.02 in0.5 mm 0.00 in0.0 mm 0.07 in1.8 mm
07:21 PM 71.8°F22.1°C -165.6°F-109.8°C - Calm Calm 2.0 mph3.2 kmh 28.95 in980.4 mb 0.00 in0.0 mm 0.00 in0.0 mm 0.07 in1.8 mm
07:36 PM 72.0°F22.2°C -165.6°F-109.8°C - Calm Calm -- 28.96 in980.7 mb 0.00 in0.0 mm 0.00 in0.0 mm 0.07 in1.8 mm
07:51 PM 71.8°F22.1°C -165.6°F-109.8°C - Calm Calm 2.0 mph3.2 kmh 28.97 in981.0 mb 0.00 in0.0 mm 0.00 in0.0 mm 0.07 in1.8 mm
08:06 PM 72.0°F22.2°C -165.6°F-109.8°C - 1.4 mph N2.3 kmh N 3.4 mph5.5 kmh 28.98 in981.4 mb 0.00 in0.0 mm 0.00 in0.0 mm 0.07 in1.8 mm
08:21 PM 72.3°F22.4°C -165.6°F-109.8°C - Calm Calm 1.4 mph2.3 kmh 28.98 in981.4 mb 0.00 in0.0 mm 0.00 in0.0 mm 0.07 in1.8 mm
08:36 PM 72.7°F22.6°C -165.5°F-109.7°C - 2.0 mph N3.2 kmh N 4.8 mph7.7 kmh 28.99 in981.7 mb 0.00 in0.0 mm 0.00 in0.0 mm 0.07 in1.8 mm
08:51 PM 73.2°F22.9°C -165.5°F-109.7°C - 2.0 mph N3.2 kmh N 4.0 mph6.4 kmh 29.00 in982.1 mb 0.00 in0.0 mm 0.00 in0.0 mm 0.07 in1.8 mm
09:06 PM 72.5°F22.5°C -165.6°F-109.8°C - 0.6 mph N1.0 kmh N 1.4 mph2.3 kmh 29.00 in982.1 mb 0.09 in2.3 mm 0.11 in2.8 mm 0.16 in4.1 mm
09:21 PM 70.3°F21.3°C -165.8°F-109.9°C - Calm Calm 1.4 mph2.3 kmh 29.01 in982.4 mb 0.02 in0.5 mm 0.00 in0.0 mm 0.16 in4.1 mm
09:36 PM 69.8°F21.0°C 13.0°F-10.6°C 11% 0.6 mph N1.0 kmh N 2.0 mph3.2 kmh 29.01 in982.4 mb 0.02 in0.5 mm 0.00 in0.0 mm 0.16 in4.1 mm
09:51 PM 69.6°F20.9°C 18.3°F-7.6°C 14% 2.8 mph N4.5 kmh N 4.8 mph7.7 kmh 29.01 in982.4 mb 0.02 in0.5 mm 0.00 in0.0 mm 0.16 in4.1 mm
10:06 PM 69.6°F20.9°C 14.8°F-9.6°C 12% 0.6 mph N1.0 kmh N 3.4 mph5.5 kmh 29.02 in982.7 mb 0.02 in0.5 mm 0.00 in0.0 mm 0.16 in4.1 mm
10:21 PM 69.6°F20.9°C 12.8°F-10.7°C 11% 2.8 mph N4.5 kmh N 6.8 mph10.9 kmh 29.01 in982.4 mb 0.00 in0.0 mm 0.00 in0.0 mm 0.16 in4.1 mm
10:36 PM 69.4°F20.8°C -165.9°F-109.9°C - 1.4 mph N2.3 kmh N 2.8 mph4.5 kmh 29.02 in982.7 mb 0.00 in0.0 mm 0.00 in0.0 mm 0.16 in4.1 mm
10:51 PM 69.1°F20.6°C -165.9°F-109.9°C - 2.0 mph N3.2 kmh N 4.8 mph7.7 kmh 29.03 in983.1 mb 0.00 in0.0 mm 0.00 in0.0 mm 0.16 in4.1 mm
11:06 PM 68.9°F20.5°C -165.9°F-109.9°C - 2.0 mph N3.2 kmh N 5.4 mph8.7 kmh 29.03 in983.1 mb 0.00 in0.0 mm 0.00 in0.0 mm 0.16 in4.1 mm
11:21 PM 69.3°F20.7°C -165.9°F-109.9°C - 2.8 mph N4.5 kmh N 5.4 mph8.7 kmh 29.03 in983.1 mb 0.00 in0.0 mm 0.00 in0.0 mm 0.16 in4.1 mm
11:36 PM 69.4°F20.8°C -165.9°F-109.9°C - 2.0 mph N3.2 kmh N 4.0 mph6.4 kmh 29.03 in983.1 mb 0.00 in0.0 mm 0.00 in0.0 mm 0.16 in4.1 mm
11:51 PM 69.3°F20.7°C -165.9°F-109.9°C - 2.8 mph N4.5 kmh N 4.8 mph7.7 kmh 29.03 in983.1 mb 0.00 in0.0 mm 0.00 in0.0 mm 0.16 in4.1 mm